Time;durP1;ratioP1;P1;durP2;ratioP2;P2;SDS_P1;SDS_P2;PMS_P1;PMS_P2;Temp;Humidity;BMP_temperature;BMP_pressure;BME280_temperature;BME280_humidity;BME280_pressure;Samples;Min_cycle;Max_cycle;Signal;HPM_P1;HPM_P2
2022/02/10 00:34:40;;;;;;;11.50;9.80;;;;;;;7.73;74.37;101040.52;108367;1276;23820;-77
2022/02/10 00:38:16;;;;;;;;;;;;;;;;;;;;;
2022/02/10 00:42:05;;;;;;;;;;;;;;;;;;;;;
2022/02/10 00:45:48;;;;;;;;;;;;;;;;;;;;;
2022/02/10 00:49:36;;;;;;;;;;;;;;;;;;;;;
2022/02/10 00:52:48;;;;;;;10.40;9.40;;;;;;;7.82;73.90;101038.70;107539;1282;22022;-78
2022/02/10 00:56:08;;;;;;;12.20;10.50;;;;;;;7.86;73.83;101032.21;107861;1282;21996;-79
2022/02/10 01:33:04;;;;;;;12.30;10.90;;;;;;;7.93;73.32;101008.04;107863;1285;23203;-78
2022/02/10 01:36:04;;;;;;;11.30;10.10;;;;;;;7.94;73.27;101003.93;107588;1283;23295;-78
2022/02/10 01:39:02;;;;;;;11.50;10.30;;;;;;;7.96;73.22;100998.70;107652;1285;23846;-78
2022/02/10 02:07:43;;;;;;;11.00;9.70;;;;;;;7.95;73.04;100991.42;106903;1291;22045;-78
2022/02/10 02:10:12;;;;;;;10.30;9.30;;;;;;;7.93;73.17;100991.17;107097;1289;22048;-78
2022/02/10 02:13:09;;;;;;;;;;;;;;;;;;;;;
2022/02/10 02:16:26;;;;;;;;;;;;;;;;;;;;;
2022/02/10 02:19:53;;;;;;;;;;;;;;;;;;;;;
2022/02/10 02:23:29;;;;;;;11.10;9.80;;;;;;;7.93;72.93;100972.98;108384;1276;22191;-79
2022/02/10 02:27:16;;;;;;;;;;;;;;;;;;;;;
2022/02/10 03:13:45;;;;;;;;;;;;;;;;;;;;;
2022/02/10 04:17:26;;;;;;;9.30;8.00;;;;;;;8.85;66.79;100953.77;109647;1263;22092;-79
2022/02/10 04:21:52;;;;;;;12.30;9.60;;;;;;;8.60;67.67;100953.46;108938;1269;22537;-77
2022/02/10 05:23:02;;;;;;;16.40;14.50;;;;;;;7.65;71.27;100916.39;108326;1276;22000;-77
2022/02/10 05:31:49;;;;;;;21.40;16.00;;;;;;;7.64;71.36;100916.31;108373;1274;21989;-77
2022/02/10 05:36:59;;;;;;;;;;;;;;;;;;;;;
2022/02/10 05:44:16;;;;;;;;;;;;;;;;;;;;;
2022/02/10 05:55:40;;;;;;;17.50;14.40;;;;;;;7.57;72.06;100900.77;108453;1279;22032;-78
2022/02/10 05:59:38;;;;;;;;;;;;;;;;;;;;;
2022/02/10 06:50:46;;;;;;;;;;;;;;;;;;;;;
2022/02/10 07:05:09;;;;;;;;;;;;;;;;;;;;;
2022/02/10 07:12:03;;;;;;;19.10;15.90;;;;;;;7.46;74.31;100900.48;108827;1273;23010;-79
2022/02/10 07:52:09;;;;;;;;;;;;;;;;;;;;;
2022/02/10 09:05:01;;;;;;;18.80;15.30;;;;;;;8.94;70.17;100856.20;108941;1270;24336;-78
2022/02/10 09:11:57;;;;;;;28.90;24.30;;;;;;;8.92;70.10;100849.90;108352;1282;22076;-79
2022/02/10 09:18:27;;;;;;;28.90;25.60;;;;;;;9.03;70.01;100845.13;108425;1282;22067;-79
2022/02/10 09:56:02;;;;;;;68.00;50.30;;;;;;;9.33;67.49;100814.34;110593;1256;23029;-79
2022/02/10 09:59:06;;;;;;;33.50;29.80;;;;;;;9.31;67.20;100815.64;108109;1254;2936550;-79
2022/02/10 10:05:51;;;;;;;39.40;30.10;;;;;;;9.18;66.85;100812.11;109559;1265;23796;-80
2022/02/10 10:15:50;;;;;;;23.20;19.50;;;;;;;9.20;67.06;100800.29;108887;1270;22776;-77
2022/02/10 10:26:18;;;;;;;;;;;;;;;9.24;66.44;100763.36;108453;1276;22121;-79
2022/02/10 10:49:25;;;;;;;44.50;36.40;;;;;;;9.59;66.10;100714.61;108144;1279;23701;-76
2022/02/10 10:57:52;;;;;;;22.60;18.10;;;;;;;9.75;65.03;100707.90;108401;1276;24065;-76
2022/02/10 11:36:34;;;;;;;16.10;13.80;;;;;;;9.97;63.02;100641.29;107539;1286;22041;-80
2022/02/10 11:39:54;;;;;;;16.00;13.90;;;;;;;10.05;63.04;100638.66;107393;1285;22068;-79
2022/02/10 11:43:29;;;;;;;23.70;17.40;;;;;;;10.23;63.20;100629.81;107883;1282;22005;-78
2022/02/10 11:46:58;;;;;;;30.50;25.00;;;;;;;10.48;62.94;100621.73;107913;1282;22400;-78
2022/02/10 11:59:54;;;;;;;37.50;28.80;;;;;;;10.70;62.29;100617.58;108038;1279;23862;-78
2022/02/10 14:13:07;;;;;;;25.60;20.30;;;;;;;10.46;60.06;100342.24;109335;1262;22054;-78
2022/02/10 14:22:53;;;;;;;20.40;15.60;;;;;;;10.54;60.29;100331.05;110567;1256;21975;-78
2022/02/10 14:26:33;;;;;;;18.10;14.60;;;;;;;10.57;60.39;100331.32;110388;1256;23726;-78
2022/02/10 14:28:58;;;;;;;19.00;14.70;;;;;;;10.61;60.40;100326.70;110459;1255;23078;-79
2022/02/10 14:31:52;;;;;;;24.00;16.20;;;;;;;10.62;60.35;100321.57;110775;1251;21977;-78
2022/02/10 14:34:47;;;;;;;18.80;14.70;;;;;;;10.63;60.27;100320.77;110607;1250;21974;-81
2022/02/10 14:37:53;;;;;;;28.10;17.60;;;;;;;10.64;60.34;100320.70;110594;1250;22426;-79
2022/02/10 15:28:56;;;;;;;19.10;13.30;;;;;;;10.92;59.64;100313.71;109754;1262;23613;-79
2022/02/10 16:17:51;;;;;;;16.80;14.70;;;;;;;10.59;60.29;100281.75;110472;1256;21976;-77
2022/02/10 16:20:48;;;;;;;21.10;17.30;;;;;;;10.62;60.08;100281.29;110429;1256;22766;-78
2022/02/10 16:23:31;;;;;;;17.30;13.40;;;;;;;10.60;59.93;100279.21;110156;1256;23760;-78
2022/02/10 16:26:21;;;;;;;18.00;12.60;;;;;;;10.60;59.94;100282.58;110234;1256;23047;-78
2022/02/10 16:29:02;;;;;;;17.40;12.10;;;;;;;10.56;59.88;100283.52;110105;1256;21980;-77
2022/02/10 16:31:59;;;;;;;47.80;38.20;;;;;;;10.53;59.75;100286.09;110148;1258;23722;-78
2022/02/10 16:34:44;;;;;;;21.60;16.00;;;;;;;10.51;59.70;100286.56;110072;1259;23757;-78
2022/02/10 16:37:27;;;;;;;17.40;14.00;;;;;;;10.48;59.58;100284.02;110468;1256;22349;-78
2022/02/10 16:40:07;;;;;;;19.00;14.00;;;;;;;10.45;59.50;100287.39;110998;1250;22198;-78
2022/02/10 16:43:13;;;;;;;;;;;;;;;;;;;;;
2022/02/10 16:45:59;;;;;;;20.50;15.40;;;;;;;10.43;59.63;100293.91;110335;1250;22754;-78
2022/02/10 16:48:33;;;;;;;25.40;17.90;;;;;;;10.46;59.47;100293.61;110293;1250;23589;-78
2022/02/10 16:51:08;;;;;;;26.00;14.90;;;;;;;10.49;59.51;100294.66;110294;1250;21949;-79
2022/02/10 16:53:43;;;;;;;23.60;14.80;;;;;;;10.52;59.39;100296.09;110308;1250;21929;-78
2022/02/10 16:56:21;;;;;;;17.10;13.50;;;;;;;10.53;59.42;100299.50;110416;1250;21960;-78
2022/02/10 16:59:26;;;;;;;19.90;14.50;;;;;;;10.54;59.43;100305.44;110405;1250;21962;-78
2022/02/10 17:17:22;;;;;;;28.60;20.70;;;;;;;10.43;59.49;100299.39;110823;1250;21959;-78
2022/02/10 17:25:21;;;;;;;30.40;21.80;;;;;;;10.50;59.81;100310.60;110968;1250;21971;-77
2022/02/10 17:27:57;;;;;;;38.30;29.10;;;;;;;10.52;59.69;100317.53;110287;1256;23043;-77
2022/02/10 17:31:08;;;;;;;31.50;19.60;;;;;;;10.53;59.79;100331.27;110554;1256;23026;-77
2022/02/10 17:34:13;;;;;;;27.80;19.10;;;;;;;10.46;59.85;100337.16;110492;1254;21977;-78
2022/02/10 17:43:13;;;;;;;15.30;9.10;;;;;;;10.14;60.18;100349.71;110587;1256;23594;-78
2022/02/10 17:53:53;;;;;;;13.40;9.50;;;;;;;9.68;61.92;100321.84;110842;1250;22754;-77
2022/02/10 17:56:26;;;;;;;13.50;10.40;;;;;;;9.65;62.11;100323.02;111002;1250;22044;-78
2022/02/10 17:58:58;;;;;;;14.50;10.80;;;;;;;9.64;62.19;100327.70;110861;1250;21969;-78
2022/02/10 18:01:32;;;;;;;13.20;9.40;;;;;;;9.63;62.37;100331.71;110608;1253;21952;-79
2022/02/10 18:04:13;;;;;;;13.30;10.80;;;;;;;9.60;62.56;100331.52;110389;1253;21964;-78
2022/02/10 18:06:53;;;;;;;19.90;15.20;;;;;;;9.57;62.66;100333.65;110379;1254;23601;-77
2022/02/10 18:10:03;;;;;;;16.30;11.30;;;;;;;9.55;62.86;100333.42;110521;1257;21968;-78
2022/02/10 18:15:35;;;;;;;15.40;11.60;;;;;;;9.55;63.16;100330.62;110426;1253;21976;-78
2022/02/10 18:18:22;;;;;;;14.50;9.70;;;;;;;9.56;63.16;100334.52;110475;1256;21966;-78
2022/02/10 18:21:12;;;;;;;14.60;10.20;;;;;;;9.57;63.20;100336.78;110851;1249;21959;-79
2022/02/10 18:37:43;;;;;;;15.90;11.10;;;;;;;9.54;63.45;100352.86;110890;1251;22916;-79
2022/02/10 19:02:31;;;;;;;14.40;9.70;;;;;;;9.41;63.28;100387.08;110311;1254;21990;-78
2022/02/10 19:08:05;;;;;;;16.40;9.00;;;;;;;9.37;63.41;100388.38;110447;1251;22005;-79
2022/02/10 19:10:42;;;;;;;15.60;10.30;;;;;;;9.35;63.45;100391.95;110685;1251;21960;-78
2022/02/10 19:13:17;;;;;;;15.40;10.40;;;;;;;9.33;63.62;100394.33;110801;1250;22746;-79
2022/02/10 19:15:49;;;;;;;20.30;10.80;;;;;;;9.32;63.66;100397.31;110747;1250;23784;-78
2022/02/10 19:18:52;;;;;;;;;;;;;;;;;;;;;
2022/02/10 19:21:34;;;;;;;17.40;12.70;;;;;;;9.25;63.74;100407.36;110875;1250;22913;-78
2022/02/10 19:24:10;;;;;;;21.40;12.80;;;;;;;9.23;63.82;100412.66;110602;1256;21995;-78
2022/02/10 19:26:45;;;;;;;13.60;9.90;;;;;;;9.24;64.00;100420.70;110227;1256;21991;-79
2022/02/10 19:29:28;;;;;;;13.60;10.40;;;;;;;9.24;64.12;100423.83;110413;1254;22002;-78
2022/02/10 19:32:05;;;;;;;12.20;9.40;;;;;;;9.24;64.15;100431.27;110467;1255;22961;-79
2022/02/10 19:34:35;;;;;;;12.70;10.00;;;;;;;9.20;64.13;100433.21;110503;1256;21968;-78
2022/02/10 19:37:30;;;;;;;13.10;9.60;;;;;;;9.14;64.28;100436.84;110425;1255;22098;-79
2022/02/10 19:40:11;;;;;;;12.00;8.40;;;;;;;9.08;64.57;100433.58;110599;1253;22145;-79
2022/02/10 19:42:57;;;;;;;14.60;9.00;;;;;;;9.05;64.75;100435.13;110729;1251;22727;-78
2022/02/10 19:45:29;;;;;;;11.30;8.60;;;;;;;9.01;65.00;100438.83;110963;1250;23039;-77
2022/02/10 19:48:12;;;;;;;15.60;9.80;;;;;;;9.00;65.39;100442.80;110848;1250;21962;-78
2022/02/10 19:50:47;;;;;;;11.70;9.40;;;;;;;8.97;65.57;100446.79;110767;1250;21985;-78
2022/02/10 19:53:23;;;;;;;9.60;8.60;;;;;;;8.94;65.77;100450.22;110638;1251;21974;-79
2022/02/10 19:56:00;;;;;;;12.90;8.60;;;;;;;8.90;65.86;100457.73;110750;1248;21965;-78
2022/02/10 19:58:53;;;;;;;17.00;10.40;;;;;;;8.82;66.11;100461.85;110598;1254;23041;-78
2022/02/10 20:01:27;;;;;;;17.80;11.70;;;;;;;8.80;66.64;100462.17;110654;1254;21960;-78
2022/02/10 20:04:04;;;;;;;13.60;10.20;;;;;;;8.78;66.70;100465.75;110509;1254;21992;-77
2022/02/10 20:06:41;;;;;;;12.50;9.30;;;;;;;8.76;66.85;100468.56;110513;1255;21956;-78
2022/02/10 20:09:18;;;;;;;13.80;9.70;;;;;;;8.75;67.02;100477.80;110505;1254;24420;-78
2022/02/10 20:11:59;;;;;;;12.20;10.20;;;;;;;8.74;67.32;100484.61;110471;1254;22194;-78
2022/02/10 20:14:40;;;;;;;15.10;11.10;;;;;;;8.70;67.32;100484.78;110477;1253;21976;-79
2022/02/10 20:17:24;;;;;;;13.20;11.10;;;;;;;8.64;67.45;100486.24;110746;1251;22425;-78
2022/02/10 20:19:57;;;;;;;13.00;9.90;;;;;;;8.57;67.71;100486.61;110877;1251;23025;-77
2022/02/10 20:22:37;;;;;;;16.00;8.60;;;;;;;8.52;67.90;100493.97;110226;1257;23602;-78
2022/02/10 20:25:48;;;;;;;10.00;7.40;;;;;;;8.45;67.96;100500.29;110504;1257;23600;-78
2022/02/10 20:28:45;;;;;;;8.10;5.90;;;;;;;8.40;68.14;100507.27;110579;1254;23816;-79
2022/02/10 20:31:30;;;;;;;7.60;6.80;;;;;;;8.36;68.04;100513.59;110459;1257;23688;-78
2022/02/10 20:34:01;;;;;;;8.90;6.90;;;;;;;8.31;68.02;100517.23;110447;1257;21985;-78
2022/02/10 20:36:44;;;;;;;10.70;8.70;;;;;;;8.25;68.03;100526.98;110660;1254;22471;-77
2022/02/10 20:39:20;;;;;;;11.50;9.50;;;;;;;8.20;68.24;100537.36;110478;1255;21965;-78
2022/02/10 20:42:04;;;;;;;11.90;9.30;;;;;;;8.15;68.12;100548.21;110483;1257;23050;-79
2022/02/10 20:44:53;;;;;;;10.10;7.40;;;;;;;8.04;67.99;100554.23;110428;1257;24261;-79
2022/02/10 20:47:28;;;;;;;12.40;8.00;;;;;;;7.90;68.00;100555.05;110169;1257;23570;-77
2022/02/10 20:50:03;;;;;;;15.50;8.60;;;;;;;7.75;68.05;100562.69;110278;1257;23793;-78
2022/02/10 20:52:41;;;;;;;12.80;7.80;;;;;;;7.60;68.08;100562.73;109749;1262;21973;-78
2022/02/10 20:55:20;;;;;;;7.70;5.40;;;;;;;7.45;68.09;100574.13;109337;1263;23728;-79
2022/02/10 20:57:59;;;;;;;6.50;4.70;;;;;;;7.30;68.20;100578.54;109200;1267;22004;-78
2022/02/10 21:00:41;;;;;;;6.30;4.50;;;;;;;7.16;68.31;100577.84;109159;1267;21986;-79
2022/02/10 21:03:32;;;;;;;6.80;4.20;;;;;;;7.04;68.55;100585.05;109071;1270;23619;-77
2022/02/10 21:12:20;;;;;;;7.90;4.00;;;;;;;6.90;69.04;100596.14;109299;1264;22330;-78
2022/02/10 21:14:52;;;;;;;7.90;5.00;;;;;;;6.84;69.23;100595.09;109232;1267;24384;-78
2022/02/10 21:17:44;;;;;;;5.40;4.40;;;;;;;6.77;69.40;100595.20;109641;1262;24282;-79
2022/02/10 21:20:31;;;;;;;7.00;4.60;;;;;;;6.74;69.75;100601.46;109673;1257;21959;-78
2022/02/10 21:23:24;;;;;;;7.00;4.10;;;;;;;6.68;69.95;100600.36;110664;1257;21970;-78
2022/02/10 21:26:02;;;;;;;10.30;5.40;;;;;;;6.62;69.95;100603.71;110416;1257;22134;-79
2022/02/10 21:28:48;;;;;;;10.40;6.70;;;;;;;6.54;70.06;100611.75;110499;1255;23093;-78
2022/02/10 21:31:30;;;;;;;7.20;4.40;;;;;;;6.50;70.36;100613.02;109950;1260;21942;-79
2022/02/10 21:34:12;;;;;;;4.40;2.40;;;;;;;6.47;70.48;100613.65;110034;1260;23657;-78
2022/02/10 21:39:51;;;;;;;5.50;2.70;;;;;;;6.33;70.38;100618.16;110105;1260;23611;-75
2022/02/10 21:48:36;;;;;;;4.80;2.60;;;;;;;6.15;70.73;100601.01;110395;1254;22191;-76
2022/02/10 21:57:36;;;;;;;6.50;3.40;;;;;;;6.05;71.01;100609.42;110243;1254;23024;-76
2022/02/10 22:19:34;;;;;;;4.60;3.20;;;;;;;6.17;71.43;100634.79;110302;1257;21999;-75
2022/02/10 22:22:33;;;;;;;5.70;4.00;;;;;;;6.19;71.32;100635.63;110293;1257;22481;-76
2022/02/10 22:25:13;;;;;;;8.50;4.90;;;;;;;6.21;71.30;100636.20;109962;1260;23015;-77
2022/02/10 22:28:23;;;;;;;;;;;;;;;;;;;;;
2022/02/10 22:37:13;;;;;;;10.20;7.10;;;;;;;6.29;71.26;100656.60;109078;1267;22197;-76
2022/02/10 22:40:39;;;;;;;7.60;5.00;;;;;;;6.31;71.16;100656.43;109233;1267;21985;-77
2022/02/10 22:43:27;;;;;;;7.20;4.60;;;;;;;6.30;71.12;100658.06;109597;1260;22008;-77
2022/02/10 22:46:02;;;;;;;5.00;3.90;;;;;;;6.30;71.18;100661.23;109159;1267;24275;-77
2022/02/10 22:49:00;;;;;;;6.40;4.20;;;;;;;6.30;71.19;100658.66;109121;1260;21968;-76
2022/02/10 22:51:48;;;;;;;5.90;4.30;;;;;;;6.30;71.19;100666.53;110286;1254;22118;-76
2022/02/10 22:54:22;;;;;;;5.40;3.90;;;;;;;6.29;71.24;100668.50;109630;1260;21995;-76
2022/02/10 22:57:07;;;;;;;6.50;4.60;;;;;;;6.30;71.22;100669.08;109973;1262;21991;-78
2022/02/10 23:00:33;;;;;;;7.20;5.00;;;;;;;6.29;71.18;100670.07;109716;1260;24304;-76
2022/02/10 23:03:31;;;;;;;7.90;6.30;;;;;;;6.27;71.22;100668.85;109906;1256;22667;-77
2022/02/10 23:06:40;;;;;;;6.70;4.90;;;;;;;6.24;71.06;100671.23;110536;1254;21966;-78
2022/02/10 23:12:25;;;;;;;5.80;4.80;;;;;;;6.19;71.21;100672.01;109580;1257;22125;-77
2022/02/10 23:15:00;;;;;;;6.40;4.90;;;;;;;6.16;70.98;100676.62;110260;1256;21979;-77
2022/02/10 23:17:32;;;;;;;7.10;4.80;;;;;;;6.14;71.07;100676.08;110317;1257;22325;-76
2022/02/10 23:20:13;;;;;;;7.00;4.90;;;;;;;6.12;71.09;100675.18;110536;1254;23040;-76
2022/02/10 23:22:59;;;;;;;;;;;;;;;;;;;;;
2022/02/10 23:25:47;;;;;;;9.90;7.40;;;;;;;6.09;71.36;100673.61;109689;1261;21996;-77
2022/02/10 23:28:44;;;;;;;11.80;7.10;;;;;;;6.06;71.39;100674.83;109705;1263;22083;-76
2022/02/10 23:31:28;;;;;;;9.90;7.90;;;;;;;6.07;71.42;100675.00;109980;1260;21996;-77
2022/02/10 23:34:06;;;;;;;11.70;10.50;;;;;;;6.08;71.40;100675.05;109630;1257;22031;-77
2022/02/10 23:37:01;;;;;;;14.00;12.70;;;;;;;6.09;71.38;100673.59;110241;1257;22845;-77
2022/02/10 23:39:39;;;;;;;16.70;15.10;;;;;;;6.09;71.44;100672.55;110179;1257;23685;-77
2022/02/10 23:42:34;;;;;;;15.60;14.10;;;;;;;6.09;71.42;100672.53;110893;1251;23642;-78
2022/02/10 23:45:18;;;;;;;10.00;8.50;;;;;;;6.09;71.48;100666.95;110475;1257;21974;-77
2022/02/10 23:48:03;;;;;;;9.50;8.50;;;;;;;6.06;71.47;100668.42;110449;1254;23669;-77
2022/02/10 23:50:56;;;;;;;9.90;7.90;;;;;;;6.06;71.50;100671.70;110371;1254;22933;-78
2022/02/10 23:53:45;;;;;;;15.50;10.90;;;;;;;6.08;71.49;100671.39;110381;1257;23072;-77
2022/02/10 23:56:27;;;;;;;18.80;12.00;;;;;;;6.07;71.50;100669.15;110343;1257;22012;-77
2022/02/10 23:59:22;;;;;;;20.00;12.10;;;;;;;6.06;71.32;100670.11;110469;1254;21968;-78
